Time;durP1;ratioP1;P1;durP2;ratioP2;P2;SDS_P1;SDS_P2;PMS_P1;PMS_P2;Temp;Humidity;BMP_temperature;BMP_pressure;BME280_temperature;BME280_humidity;BME280_pressure;Samples;Min_cycle;Max_cycle;Signal;HPM_P1;HPM_P2
2022/05/02 00:01:22;;;;;;;5.90;4.57;;;;;;;;;;7396176;19;20073;-80
2022/05/02 00:03:47;;;;;;;7.70;4.80;;;;;;;;;;7394208;19;20023;-80
2022/05/02 00:06:12;;;;;;;7.30;4.72;;;;;;;;;;7394088;19;20082;-80
2022/05/02 00:08:38;;;;;;;6.97;4.65;;;;;;;;;;7395526;19;20015;-82
2022/05/02 00:11:03;;;;;;;7.22;5.07;;;;;;;;;;7392172;19;20011;-81
2022/05/02 00:13:28;;;;;;;7.22;4.30;;;;;;;;;;7393366;19;20006;-81
2022/05/02 00:15:54;;;;;;;8.63;4.68;;;;;;;;;;7393542;19;20014;-81
2022/05/02 00:18:19;;;;;;;6.32;4.63;;;;;;;;;;7392887;19;20027;-80
2022/05/02 00:20:44;;;;;;;5.97;4.43;;;;;;;;;;7393738;19;20015;-82
2022/05/02 00:23:10;;;;;;;6.47;4.25;;;;;;;;;;7397645;19;20010;-82
2022/05/02 00:25:36;;;;;;;6.47;4.47;;;;;;;;;;7393540;19;20015;-82
2022/05/02 00:28:03;;;;;;;7.43;4.60;;;;;;;;;;7397713;19;20037;-81
2022/05/02 00:30:29;;;;;;;5.22;4.03;;;;;;;;;;7395072;19;20014;-83
2022/05/02 00:32:55;;;;;;;6.90;4.50;;;;;;;;;;7396604;19;20002;-81
2022/05/02 00:35:21;;;;;;;5.57;4.50;;;;;;;;;;7395044;19;20014;-80
2022/05/02 00:37:47;;;;;;;6.82;4.40;;;;;;;;;;7396296;19;20003;-81
2022/05/02 00:40:14;;;;;;;5.72;4.30;;;;;;;;;;7392360;19;20012;-81
2022/05/02 00:42:42;;;;;;;4.82;3.42;;;;;;;;;;7395073;19;20451;-81
2022/05/02 00:45:09;;;;;;;4.80;3.88;;;;;;;;;;7393165;19;20007;-81
2022/05/02 00:47:35;;;;;;;5.00;3.92;;;;;;;;;;7395796;19;20007;-80
2022/05/02 00:50:03;;;;;;;6.88;4.03;;;;;;;;;;7395173;19;20024;-80
2022/05/02 00:52:28;;;;;;;6.55;4.10;;;;;;;;;;7394492;19;20019;-81
2022/05/02 00:54:54;;;;;;;6.68;4.60;;;;;;;;;;7391162;19;20013;-81
2022/05/02 00:57:19;;;;;;;7.32;3.78;;;;;;;;;;7394103;19;20006;-81
2022/05/02 00:59:44;;;;;;;8.55;5.22;;;;;;;;;;7396696;19;20034;-81
2022/05/02 01:02:12;;;;;;;10.18;4.93;;;;;;;;;;7394627;19;20373;-80
2022/05/02 01:04:38;;;;;;;7.18;5.03;;;;;;;;;;7395137;19;20118;-81
2022/05/02 01:07:10;;;;;;;7.82;4.68;;;;;;;;;;7396008;19;20025;-81
2022/05/02 01:09:41;;;;;;;6.97;4.40;;;;;;;;;;7396144;19;20015;-81
2022/05/02 01:12:08;;;;;;;8.05;5.00;;;;;;;;;;7394512;19;20014;-83
2022/05/02 01:14:34;;;;;;;9.93;4.65;;;;;;;;;;7393873;19;20014;-81
2022/05/02 01:17:00;;;;;;;6.40;4.18;;;;;;;;;;7395555;19;19998;-81
2022/05/02 01:19:25;;;;;;;6.22;4.18;;;;;;;;;;7394248;19;20011;-82
2022/05/02 01:21:51;;;;;;;6.00;4.40;;;;;;;;;;7395567;19;19998;-81
2022/05/02 01:24:16;;;;;;;6.55;4.43;;;;;;;;;;7393609;19;20017;-81
2022/05/02 01:26:41;;;;;;;7.38;4.65;;;;;;;;;;7391472;19;20010;-80
2022/05/02 01:29:07;;;;;;;7.97;4.38;;;;;;;;;;7391712;19;20002;-82
2022/05/02 01:31:33;;;;;;;7.65;4.75;;;;;;;;;;7394605;19;20377;-82
2022/05/02 01:33:59;;;;;;;6.75;4.72;;;;;;;;;;7393255;19;20017;-80
2022/05/02 01:36:25;;;;;;;12.07;5.10;;;;;;;;;;7392397;19;20022;-80
2022/05/02 01:38:50;;;;;;;6.63;4.68;;;;;;;;;;7391777;19;20009;-82
2022/05/02 01:41:16;;;;;;;7.40;4.82;;;;;;;;;;7393526;19;20046;-81
2022/05/02 01:43:43;;;;;;;5.03;3.92;;;;;;;;;;7393680;19;20490;-80
2022/05/02 01:46:09;;;;;;;5.88;4.22;;;;;;;;;;7393972;19;20348;-81
2022/05/02 01:48:35;;;;;;;6.50;4.82;;;;;;;;;;7391809;19;20354;-82
2022/05/02 01:51:01;;;;;;;8.40;4.93;;;;;;;;;;7390203;19;20002;-83
2022/05/02 01:53:27;;;;;;;7.30;4.82;;;;;;;;;;7393277;19;20002;-81
2022/05/02 01:55:52;;;;;;;8.35;4.60;;;;;;;;;;7389313;19;20018;-84
2022/05/02 01:58:18;;;;;;;8.48;4.47;;;;;;;;;;7393808;19;20038;-84
2022/05/02 02:00:44;;;;;;;6.30;4.47;;;;;;;;;;7395318;19;20031;-83
2022/05/02 02:03:10;;;;;;;8.50;4.65;;;;;;;;;;7393480;19;20352;-82
2022/05/02 02:05:50;;;;;;;7.38;4.70;;;;;;;;;;7391514;19;20018;-82
2022/05/02 02:08:27;;;;;;;4.90;3.88;;;;;;;;;;7393995;19;20010;-83
2022/05/02 02:10:55;;;;;;;6.70;4.57;;;;;;;;;;7390871;19;20006;-82
2022/05/02 02:13:21;;;;;;;9.70;4.82;;;;;;;;;;7394521;19;20543;-83
2022/05/02 02:15:47;;;;;;;6.15;4.50;;;;;;;;;;7393127;19;20044;-84
2022/05/02 02:18:12;;;;;;;7.95;4.85;;;;;;;;;;7391695;19;20341;-82
2022/05/02 02:20:40;;;;;;;7.05;4.82;;;;;;;;;;7393111;19;20015;-82
2022/05/02 02:23:06;;;;;;;7.70;4.85;;;;;;;;;;7390409;19;19995;-82
2022/05/02 02:25:32;;;;;;;8.05;5.32;;;;;;;;;;7391869;19;20418;-81
2022/05/02 02:28:00;;;;;;;8.70;4.65;;;;;;;;;;7392467;19;20025;-84
2022/05/02 02:30:25;;;;;;;6.70;4.63;;;;;;;;;;7389991;19;20006;-83
2022/05/02 02:32:51;;;;;;;8.27;5.15;;;;;;;;;;7392662;19;20013;-82
2022/05/02 02:35:18;;;;;;;6.63;4.78;;;;;;;;;;7390996;19;20043;-83
2022/05/02 02:37:44;;;;;;;6.95;4.50;;;;;;;;;;7395184;19;20018;-83
2022/05/02 02:40:10;;;;;;;6.88;5.05;;;;;;;;;;7399839;19;20479;-82
2022/05/02 02:42:36;;;;;;;8.65;4.80;;;;;;;;;;7400964;19;20010;-83
2022/05/02 02:45:01;;;;;;;7.07;4.70;;;;;;;;;;7398803;19;20013;-82
2022/05/02 02:47:26;;;;;;;7.00;4.10;;;;;;;;;;7397909;19;20070;-82
2022/05/02 02:49:52;;;;;;;6.70;4.47;;;;;;;;;;7399595;19;20006;-81
2022/05/02 02:52:17;;;;;;;6.60;4.38;;;;;;;;;;7398675;19;20015;-80
2022/05/02 02:54:42;;;;;;;6.20;4.00;;;;;;;;;;7397069;19;20014;-80
2022/05/02 02:57:08;;;;;;;6.28;3.90;;;;;;;;;;7397946;19;20105;-82
2022/05/02 02:59:33;;;;;;;5.60;3.67;;;;;;;;;;7398691;19;20006;-81
2022/05/02 03:01:58;;;;;;;6.38;3.38;;;;;;;;;;7398625;19;20027;-83
2022/05/02 03:07:09;;;;;;;4.50;2.97;;;;;;;;;;7393045;19;20058;-82
2022/05/02 03:09:35;;;;;;;6.28;3.80;;;;;;;;;;7397069;19;20011;-82
2022/05/02 03:12:00;;;;;;;5.63;3.83;;;;;;;;;;7397201;19;20475;-81
2022/05/02 03:14:26;;;;;;;6.35;3.42;;;;;;;;;;7396366;19;20017;-81
2022/05/02 03:16:51;;;;;;;6.72;3.08;;;;;;;;;;7415469;19;20002;-85
2022/05/02 03:19:16;;;;;;;4.05;3.45;;;;;;;;;;7419672;19;20111;-83
2022/05/02 03:21:42;;;;;;;6.13;3.42;;;;;;;;;;7399163;19;20479;-83
2022/05/02 03:24:07;;;;;;;7.00;3.45;;;;;;;;;;7397294;19;20007;-83
2022/05/02 03:26:32;;;;;;;5.05;3.22;;;;;;;;;;7395651;19;20010;-82
2022/05/02 03:28:58;;;;;;;5.55;3.85;;;;;;;;;;7396832;19;20007;-83
2022/05/02 03:31:23;;;;;;;5.28;3.58;;;;;;;;;;7398483;19;20017;-83
2022/05/02 03:33:48;;;;;;;5.75;3.90;;;;;;;;;;7397314;19;20021;-83
2022/05/02 03:36:13;;;;;;;5.88;3.53;;;;;;;;;;7395021;19;20006;-83
2022/05/02 03:38:39;;;;;;;5.43;3.55;;;;;;;;;;7393221;19;20502;-83
2022/05/02 03:41:04;;;;;;;6.15;3.40;;;;;;;;;;7396284;19;20013;-83
2022/05/02 03:43:29;;;;;;;6.68;3.67;;;;;;;;;;7396977;19;20309;-82
2022/05/02 03:45:54;;;;;;;6.45;3.22;;;;;;;;;;7395049;19;20007;-82
2022/05/02 03:48:20;;;;;;;6.05;3.40;;;;;;;;;;7395975;19;20040;-82
2022/05/02 03:50:46;;;;;;;5.65;3.42;;;;;;;;;;7397518;19;20116;-83
2022/05/02 03:53:15;;;;;;;5.70;3.85;;;;;;;;;;7397205;19;20007;-83
2022/05/02 03:55:42;;;;;;;5.07;3.28;;;;;;;;;;7395122;19;20014;-83
2022/05/02 03:58:08;;;;;;;7.28;3.38;;;;;;;;;;7395132;19;20218;-82
2022/05/02 04:00:34;;;;;;;5.70;3.10;;;;;;;;;;7396691;19;20003;-83
2022/05/02 04:02:59;;;;;;;6.65;3.13;;;;;;;;;;7397276;19;20009;-82
2022/05/02 04:05:24;;;;;;;5.43;3.25;;;;;;;;;;7394985;19;20011;-84
2022/05/02 04:07:50;;;;;;;4.85;3.20;;;;;;;;;;7398170;19;19999;-82
2022/05/02 04:10:15;;;;;;;5.93;3.05;;;;;;;;;;7396803;19;20491;-83
2022/05/02 04:12:42;;;;;;;7.05;3.47;;;;;;;;;;7394914;19;20022;-82
2022/05/02 04:15:11;;;;;;;6.18;3.65;;;;;;;;;;7395670;19;20049;-82
2022/05/02 04:17:37;;;;;;;4.65;3.10;;;;;;;;;;7400251;19;20038;-80
2022/05/02 04:20:04;;;;;;;6.75;2.90;;;;;;;;;;7405687;19;20027;-85
2022/05/02 04:22:29;;;;;;;5.57;3.35;;;;;;;;;;7396632;19;20024;-84
2022/05/02 04:24:55;;;;;;;5.80;4.03;;;;;;;;;;7400467;19;20550;-85
2022/05/02 04:27:20;;;;;;;6.20;3.40;;;;;;;;;;7427517;19;20121;-82
2022/05/02 04:29:46;;;;;;;7.57;3.53;;;;;;;;;;7425539;19;20011;-82
2022/05/02 04:32:11;;;;;;;6.28;3.55;;;;;;;;;;7423552;19;20010;-83
2022/05/02 04:34:36;;;;;;;7.43;3.65;;;;;;;;;;7424694;19;20044;-82
2022/05/02 04:37:02;;;;;;;5.20;3.50;;;;;;;;;;7410600;19;20007;-83
2022/05/02 04:39:27;;;;;;;11.98;4.80;;;;;;;;;;7392362;19;20006;-82
2022/05/02 04:41:53;;;;;;;8.68;4.60;;;;;;;;;;7392848;19;20003;-83
2022/05/02 04:44:18;;;;;;;6.15;3.85;;;;;;;;;;7396654;19;20014;-83
2022/05/02 04:46:43;;;;;;;6.97;4.50;;;;;;;;;;7396493;19;20134;-82
2022/05/02 04:49:08;;;;;;;8.77;5.38;;;;;;;;;;7393327;19;20006;-82
2022/05/02 04:51:35;;;;;;;11.65;6.63;;;;;;;;;;7393559;19;20329;-83
2022/05/02 04:54:00;;;;;;;12.70;7.68;;;;;;;;;;7395331;19;20014;-84
2022/05/02 04:56:25;;;;;;;16.35;8.50;;;;;;;;;;7393973;19;20025;-82
2022/05/02 04:58:51;;;;;;;18.90;9.70;;;;;;;;;;7394425;19;20022;-83
2022/05/02 05:01:16;;;;;;;16.70;9.65;;;;;;;;;;7393414;19;20499;-82
2022/05/02 05:03:42;;;;;;;15.38;8.73;;;;;;;;;;7391777;19;20040;-83
2022/05/02 05:06:07;;;;;;;19.60;9.20;;;;;;;;;;7392884;19;20031;-82
2022/05/02 05:08:32;;;;;;;15.73;8.48;;;;;;;;;;7393010;19;20097;-83
2022/05/02 05:11:08;;;;;;;17.50;9.75;;;;;;;;;;7388147;19;20471;-82
2022/05/02 05:17:08;;;;;;;14.63;7.97;;;;;;;;;;7397062;19;20014;-82
2022/05/02 05:19:46;;;;;;;15.18;7.75;;;;;;;;;;7394436;19;20022;-82
2022/05/02 05:22:38;;;;;;;12.55;7.28;;;;;;;;;;7394344;19;20114;-83
2022/05/02 05:25:30;;;;;;;15.65;8.15;;;;;;;;;;7394642;19;20010;-83
2022/05/02 05:28:20;;;;;;;14.48;8.07;;;;;;;;;;7393069;19;20019;-81
2022/05/02 05:30:50;;;;;;;19.17;8.63;;;;;;;;;;7394412;19;20091;-82
2022/05/02 05:33:27;;;;;;;15.93;8.40;;;;;;;;;;7395822;19;20014;-86
2022/05/02 05:36:06;;;;;;;14.95;8.23;;;;;;;;;;7394576;19;20014;-83
2022/05/02 05:38:51;;;;;;;31.63;8.85;;;;;;;;;;7392426;19;20070;-83
2022/05/02 05:41:23;;;;;;;40.83;7.63;;;;;;;;;;7395000;19;20014;-83
2022/05/02 05:44:14;;;;;;;28.63;8.55;;;;;;;;;;7395936;19;20509;-82
2022/05/02 05:47:01;;;;;;;25.63;8.98;;;;;;;;;;7394591;19;19998;-83
2022/05/02 05:49:51;;;;;;;22.00;7.65;;;;;;;;;;7394127;19;20098;-82
2022/05/02 05:52:36;;;;;;;37.15;9.15;;;;;;;;;;7391559;19;19995;-83
2022/05/02 05:55:05;;;;;;;16.85;8.00;;;;;;;;;;7395291;19;20031;-83
2022/05/02 05:57:54;;;;;;;18.17;8.73;;;;;;;;;;7398224;19;20013;-82
2022/05/02 06:00:20;;;;;;;18.98;7.03;;;;;;;;;;7397823;19;20164;-83
2022/05/02 06:03:13;;;;;;;29.20;9.75;;;;;;;;;;7393952;19;20150;-82
2022/05/02 06:05:46;;;;;;;28.17;10.00;;;;;;;;;;7396169;19;20022;-82
2022/05/02 06:08:15;;;;;;;35.03;9.75;;;;;;;;;;7397128;19;20361;-82
2022/05/02 06:10:43;;;;;;;41.45;9.68;;;;;;;;;;7392443;19;20088;-82
2022/05/02 06:13:09;;;;;;;27.52;8.98;;;;;;;;;;7394563;19;20035;-83
2022/05/02 06:18:27;;;;;;;28.05;10.52;;;;;;;;;;7396113;19;20031;-84
2022/05/02 06:20:56;;;;;;;13.73;8.88;;;;;;;;;;7399142;19;20014;-83
2022/05/02 06:23:28;;;;;;;13.13;8.52;;;;;;;;;;7396854;19;20014;-82
2022/05/02 06:25:56;;;;;;;23.08;9.98;;;;;;;;;;7398103;19;20007;-82
2022/05/02 06:28:25;;;;;;;23.02;12.65;;;;;;;;;;7398406;19;20119;-82
2022/05/02 06:30:53;;;;;;;19.05;10.77;;;;;;;;;;7398139;19;20014;-81
2022/05/02 06:33:21;;;;;;;17.83;10.02;;;;;;;;;;7398200;19;20018;-85
2022/05/02 06:36:21;;;;;;;21.77;10.77;;;;;;;;;;7393450;19;20452;-85
2022/05/02 06:39:22;;;;;;;14.23;8.75;;;;;;;;;;7390869;19;20440;-83
2022/05/02 06:41:56;;;;;;;17.73;11.10;;;;;;;;;;7390585;19;20018;-86
2022/05/02 06:44:47;;;;;;;20.23;10.18;;;;;;;;;;7392188;19;20007;-84
2022/05/02 06:47:43;;;;;;;20.77;11.70;;;;;;;;;;7389405;19;20010;-83
2022/05/02 06:50:11;;;;;;;20.55;10.88;;;;;;;;;;7392031;19;20436;-83
2022/05/02 06:53:13;;;;;;;19.35;12.25;;;;;;;;;;7388242;19;20131;-83
2022/05/02 06:56:54;;;;;;;17.77;11.38;;;;;;;;;;7398000;19;20020;-82
2022/05/02 07:06:55;;;;;;;18.20;11.40;;;;;;;;;;7395772;19;20341;-83
2022/05/02 07:09:24;;;;;;;18.65;12.27;;;;;;;;;;7389657;19;20007;-83
2022/05/02 07:12:18;;;;;;;22.90;13.10;;;;;;;;;;7390743;19;20006;-84
2022/05/02 07:15:04;;;;;;;20.38;13.18;;;;;;;;;;7387094;19;20082;-83
2022/05/02 07:17:54;;;;;;;20.70;12.98;;;;;;;;;;7388171;19;20411;-83
2022/05/02 07:20:29;;;;;;;23.05;13.60;;;;;;;;;;7389045;19;20102;-83
2022/05/02 07:23:29;;;;;;;19.52;12.50;;;;;;;;;;7392649;19;20018;-83
2022/05/02 07:26:07;;;;;;;23.30;14.95;;;;;;;;;;7401532;19;20041;-84
2022/05/02 07:29:03;;;;;;;23.08;14.55;;;;;;;;;;7399280;19;20417;-84
2022/05/02 07:31:29;;;;;;;27.25;15.88;;;;;;;;;;7396956;19;20014;-83
2022/05/02 07:33:55;;;;;;;26.55;17.27;;;;;;;;;;7400148;19;20085;-83
2022/05/02 07:36:22;;;;;;;23.95;15.35;;;;;;;;;;7395751;19;20048;-83
2022/05/02 07:39:08;;;;;;;26.38;17.05;;;;;;;;;;7393766;19;20100;-83
2022/05/02 07:41:35;;;;;;;26.95;16.05;;;;;;;;;;7399112;19;20014;-82
2022/05/02 07:48:09;;;;;;;26.75;15.23;;;;;;;;;;7397325;19;20027;-82
2022/05/02 07:54:52;;;;;;;20.75;13.05;;;;;;;;;;7398023;19;20011;-84
2022/05/02 07:57:20;;;;;;;16.67;12.20;;;;;;;;;;7394158;19;20104;-84
2022/05/02 07:59:54;;;;;;;17.58;13.18;;;;;;;;;;7395791;19;20014;-84
2022/05/02 08:02:19;;;;;;;17.23;11.73;;;;;;;;;;7395514;19;20007;-82
2022/05/02 08:05:39;;;;;;;16.98;11.88;;;;;;;;;;7396304;19;20314;-83
2022/05/02 08:08:50;;;;;;;20.33;11.75;;;;;;;;;;7401521;19;20030;-83
2022/05/02 08:11:29;;;;;;;16.30;11.15;;;;;;;;;;7397789;19;20015;-83
2022/05/02 08:14:38;;;;;;;15.20;11.73;;;;;;;;;;7397713;19;20003;-83
2022/05/02 08:17:24;;;;;;;18.05;11.15;;;;;;;;;;7397405;19;20007;-83
2022/05/02 08:29:40;;;;;;;14.18;10.48;;;;;;;;;;7398021;19;19989;-84
2022/05/02 08:32:10;;;;;;;13.30;9.93;;;;;;;;;;7396972;19;20094;-84
2022/05/02 09:43:05;;;;;;;7.47;5.93;;;;;;;;;;7385843;19;19933;-78
2022/05/02 10:02:43;;;;;;;5.45;4.43;;;;;;;;;;7402039;19;20009;-79
2022/05/02 10:05:39;;;;;;;6.25;4.22;;;;;;;;;;7394920;19;20002;-79
2022/05/02 10:08:53;;;;;;;4.32;3.83;;;;;;;;;;7397594;19;20032;-78
2022/05/02 10:11:31;;;;;;;4.90;3.78;;;;;;;;;;7400215;19;20412;-78
2022/05/02 10:14:14;;;;;;;4.50;3.85;;;;;;;;;;7400096;19;20997;-78
2022/05/02 10:17:10;;;;;;;4.25;3.53;;;;;;;;;;7395030;19;20040;-79
2022/05/02 10:19:54;;;;;;;5.35;3.35;;;;;;;;;;7397699;19;20343;-79
2022/05/02 10:22:57;;;;;;;5.15;3.03;;;;;;;;;;7401952;19;20016;-78
2022/05/02 10:25:58;;;;;;;4.72;3.35;;;;;;;;;;7398310;19;20143;-78
2022/05/02 10:29:05;;;;;;;5.15;3.05;;;;;;;;;;7401436;19;20433;-78
2022/05/02 10:31:34;;;;;;;;;;;;;;;;;;7389755;19;20055;-78
2022/05/02 10:34:02;;;;;;;3.10;2.80;;;;;;;;;;7402419;19;20389;-79
2022/05/02 10:36:38;;;;;;;3.33;2.53;;;;;;;;;;7397245;19;20634;-78
2022/05/02 10:39:50;;;;;;;5.22;3.20;;;;;;;;;;7399246;19;20066;-79
2022/05/02 10:42:19;;;;;;;3.00;2.63;;;;;;;;;;7398143;19;20384;-81
2022/05/02 10:45:39;;;;;;;6.43;3.08;;;;;;;;;;7401105;19;20035;-80
2022/05/02 10:51:32;;;;;;;3.08;2.72;;;;;;;;;;7407695;19;20008;-82
2022/05/02 10:54:10;;;;;;;3.47;3.15;;;;;;;;;;7397898;19;20021;-81
2022/05/02 10:56:43;;;;;;;3.88;3.00;;;;;;;;;;7398693;19;20010;-82
2022/05/02 10:59:11;;;;;;;3.42;3.13;;;;;;;;;;7401275;19;20006;-81
2022/05/02 11:01:49;;;;;;;3.33;3.00;;;;;;;;;;7408175;19;20084;-81
2022/05/02 11:04:51;;;;;;;5.20;3.35;;;;;;;;;;7406529;19;20013;-80
2022/05/02 11:07:36;;;;;;;3.08;2.78;;;;;;;;;;7408640;19;20030;-81
2022/05/02 11:10:08;;;;;;;4.30;3.30;;;;;;;;;;7406381;19;20010;-81
2022/05/02 11:12:41;;;;;;;3.63;3.22;;;;;;;;;;7409182;19;20321;-81
2022/05/02 11:22:36;;;;;;;4.22;3.33;;;;;;;;;;7406810;19;20014;-83
2022/05/02 11:25:08;;;;;;;5.20;3.55;;;;;;;;;;7405478;19;20006;-83
2022/05/02 11:27:55;;;;;;;5.18;3.63;;;;;;;;;;7412552;19;20022;-82
2022/05/02 11:30:29;;;;;;;4.70;3.75;;;;;;;;;;7417198;19;20007;-82
2022/05/02 11:33:20;;;;;;;4.40;3.38;;;;;;;;;;7416581;19;20010;-81
2022/05/02 11:35:54;;;;;;;4.70;3.40;;;;;;;;;;7418887;19;20110;-81
2022/05/02 11:39:10;;;;;;;5.90;4.32;;;;;;;;;;7418910;19;20015;-79
2022/05/02 11:41:42;;;;;;;5.25;4.13;;;;;;;;;;7427036;19;20011;-79
2022/05/02 11:44:11;;;;;;;4.28;3.88;;;;;;;;;;7421730;19;19995;-80
2022/05/02 11:46:54;;;;;;;4.45;3.35;;;;;;;;;;7424933;19;20054;-81
2022/05/02 11:50:06;;;;;;;5.32;3.90;;;;;;;;;;7426014;19;19995;-81
2022/05/02 11:52:59;;;;;;;5.85;3.40;;;;;;;;;;7403317;19;20035;-81
2022/05/02 11:55:38;;;;;;;3.58;3.05;;;;;;;;;;7402134;19;20025;-81
2022/05/02 11:58:40;;;;;;;6.53;3.53;;;;;;;;;;7402784;19;20073;-81
2022/05/02 12:01:37;;;;;;;4.13;3.10;;;;;;;;;;7401558;19;20027;-81
2022/05/02 12:04:41;;;;;;;3.78;3.13;;;;;;;;;;7399144;19;20045;-80
2022/05/02 12:08:04;;;;;;;3.58;3.00;;;;;;;;;;7394746;19;20685;-80
2022/05/02 12:11:07;;;;;;;3.47;2.92;;;;;;;;;;7390274;19;20384;-81
2022/05/02 12:13:35;;;;;;;3.65;3.22;;;;;;;;;;7394210;19;20010;-81
2022/05/02 12:16:08;;;;;;;3.67;3.33;;;;;;;;;;7387470;19;20082;-81
2022/05/02 12:18:44;;;;;;;3.80;2.67;;;;;;;;;;7390799;19;20458;-80
2022/05/02 12:21:15;;;;;;;3.83;3.05;;;;;;;;;;7391848;19;20010;-80
2022/05/02 12:23:42;;;;;;;4.20;2.80;;;;;;;;;;7394754;19;20002;-80
2022/05/02 12:26:23;;;;;;;5.13;2.55;;;;;;;;;;7389084;19;20019;-80
2022/05/02 12:29:04;;;;;;;2.90;2.35;;;;;;;;;;7390880;19;20025;-81
2022/05/02 12:31:35;;;;;;;2.80;2.50;;;;;;;;;;7392644;19;20010;-80
2022/05/02 12:34:09;;;;;;;2.30;2.10;;;;;;;;;;7394665;19;20035;-81
2022/05/02 12:37:23;;;;;;;1.93;1.80;;;;;;;;;;7394583;19;20476;-82
2022/05/02 12:40:03;;;;;;;2.40;2.20;;;;;;;;;;7390905;19;20100;-82
2022/05/02 12:42:58;;;;;;;4.05;2.30;;;;;;;;;;7391306;19;20514;-82
2022/05/02 12:45:24;;;;;;;3.17;2.60;;;;;;;;;;7393306;19;20006;-82
2022/05/02 12:47:59;;;;;;;2.90;2.60;;;;;;;;;;7395913;19;20017;-82
2022/05/02 12:50:28;;;;;;;2.72;2.35;;;;;;;;;;7396042;19;19994;-82
2022/05/02 12:53:00;;;;;;;2.95;2.47;;;;;;;;;;7393537;19;20219;-81
2022/05/02 12:55:36;;;;;;;2.55;2.35;;;;;;;;;;7390279;19;20127;-81
2022/05/02 13:00:49;;;;;;;2.55;2.17;;;;;;;;;;7395883;19;20470;-83
2022/05/02 13:03:17;;;;;;;2.17;1.98;;;;;;;;;;7397103;19;20040;-84
2022/05/02 13:05:45;;;;;;;2.30;2.10;;;;;;;;;;7395637;19;20006;-81
2022/05/02 13:08:19;;;;;;;2.70;2.50;;;;;;;;;;7395346;19;20062;-84
2022/05/02 13:10:46;;;;;;;4.80;2.80;;;;;;;;;;7394148;19;20011;-83
2022/05/02 13:13:13;;;;;;;2.75;2.17;;;;;;;;;;7395271;19;20003;-83
2022/05/02 13:15:43;;;;;;;3.08;2.78;;;;;;;;;;7395572;19;20018;-83
2022/05/02 13:18:14;;;;;;;3.08;2.55;;;;;;;;;;7394907;19;20031;-83
2022/05/02 13:20:41;;;;;;;4.00;2.42;;;;;;;;;;7401505;19;19999;-83
2022/05/02 13:23:13;;;;;;;2.47;2.28;;;;;;;;;;7398560;19;20014;-83
2022/05/02 13:26:05;;;;;;;2.35;2.15;;;;;;;;;;7402050;19;20781;-83
2022/05/02 13:28:40;;;;;;;2.70;2.38;;;;;;;;;;7401796;19;20018;-84
2022/05/02 13:31:18;;;;;;;3.58;2.50;;;;;;;;;;7401782;19;20002;-85
2022/05/02 13:33:50;;;;;;;2.90;2.30;;;;;;;;;;7391431;19;20074;-81
2022/05/02 13:36:16;;;;;;;2.92;2.45;;;;;;;;;;7393720;19;20428;-81
2022/05/02 13:38:54;;;;;;;3.80;3.13;;;;;;;;;;7397629;19;21392;-82
2022/05/02 13:41:36;;;;;;;3.28;2.85;;;;;;;;;;7397177;19;20474;-83
2022/05/02 13:44:07;;;;;;;3.58;2.95;;;;;;;;;;7394911;19;20027;-83
2022/05/02 13:46:48;;;;;;;2.97;2.67;;;;;;;;;;7388007;19;20002;-81
2022/05/02 13:49:37;;;;;;;4.60;2.88;;;;;;;;;;7391196;19;20387;-83
2022/05/02 13:52:03;;;;;;;3.53;2.90;;;;;;;;;;7394235;19;20015;-82
2022/05/02 13:54:34;;;;;;;6.80;3.13;;;;;;;;;;7397530;19;20009;-84
2022/05/02 13:57:31;;;;;;;2.85;2.58;;;;;;;;;;7394724;19;20007;-84
2022/05/02 14:03:07;;;;;;;3.80;3.35;;;;;;;;;;7391977;19;20048;-81
2022/05/02 14:05:48;;;;;;;3.40;3.10;;;;;;;;;;7387865;19;20062;-82
2022/05/02 14:08:16;;;;;;;3.15;2.83;;;;;;;;;;7390902;19;20027;-82
2022/05/02 14:10:59;;;;;;;3.70;3.22;;;;;;;;;;7393155;19;20125;-83
2022/05/02 14:13:27;;;;;;;4.25;3.25;;;;;;;;;;7396848;19;20082;-83
2022/05/02 14:16:05;;;;;;;3.63;3.08;;;;;;;;;;7402047;19;20049;-84
2022/05/02 14:19:27;;;;;;;;;;;;;;;;;;;;;
2022/05/02 14:21:56;;;;;;;3.70;2.83;;;;;;;;;;7396201;19;20014;-83
2022/05/02 14:24:22;;;;;;;3.72;2.45;;;;;;;;;;7394977;19;20016;-81
2022/05/02 14:27:39;;;;;;;2.63;2.20;;;;;;;;;;7393271;19;20034;-81
2022/05/02 14:30:24;;;;;;;4.70;2.95;;;;;;;;;;7395887;19;20013;-80
2022/05/02 14:32:52;;;;;;;3.35;2.90;;;;;;;;;;7394087;19;20027;-81
2022/05/02 14:35:26;;;;;;;5.53;3.38;;;;;;;;;;7403428;19;20007;-83
2022/05/02 14:37:55;;;;;;;3.72;3.00;;;;;;;;;;7398336;19;20014;-82
2022/05/02 14:40:21;;;;;;;3.40;3.08;;;;;;;;;;7399196;19;20542;-81
2022/05/02 14:42:49;;;;;;;3.80;3.15;;;;;;;;;;7396944;19;20014;-82
2022/05/02 14:45:14;;;;;;;3.63;3.33;;;;;;;;;;7401131;19;20009;-82
2022/05/02 14:47:41;;;;;;;3.22;2.92;;;;;;;;;;7404039;19;20003;-80
2022/05/02 14:50:09;;;;;;;5.60;3.10;;;;;;;;;;7401901;19;20026;-82
2022/05/02 14:52:36;;;;;;;4.18;3.10;;;;;;;;;;7402510;19;20003;-83
2022/05/02 14:55:06;;;;;;;3.75;3.40;;;;;;;;;;7408029;19;20013;-82
2022/05/02 14:57:33;;;;;;;3.22;2.83;;;;;;;;;;7404875;19;20010;-82
2022/05/02 15:00:04;;;;;;;4.57;3.17;;;;;;;;;;7406309;19;20442;-81
2022/05/02 15:02:34;;;;;;;3.60;3.08;;;;;;;;;;7400086;19;20016;-80
2022/05/02 15:05:07;;;;;;;3.65;2.72;;;;;;;;;;7399764;19;20077;-82
2022/05/02 15:07:49;;;;;;;3.33;2.70;;;;;;;;;;7405313;19;20021;-82
2022/05/02 15:10:40;;;;;;;3.30;2.70;;;;;;;;;;7393987;19;20023;-81
2022/05/02 15:13:43;;;;;;;3.78;2.70;;;;;;;;;;7394574;19;20007;-81
2022/05/02 15:16:26;;;;;;;3.20;2.50;;;;;;;;;;7391093;19;20235;-82
2022/05/02 15:22:31;;;;;;;3.55;2.95;;;;;;;;;;7390110;19;20098;-80
2022/05/02 15:25:09;;;;;;;8.48;2.70;;;;;;;;;;7395204;19;20031;-84
2022/05/02 15:36:48;;;;;;;4.50;2.40;;;;;;;;;;7398900;19;20014;-83
2022/05/02 15:39:19;;;;;;;3.38;2.60;;;;;;;;;;7410755;19;20078;-83
2022/05/02 15:42:18;;;;;;;2.58;2.38;;;;;;;;;;7399496;19;20273;-82
2022/05/02 15:44:45;;;;;;;2.42;2.22;;;;;;;;;;7402825;19;20046;-84
2022/05/02 15:47:16;;;;;;;2.78;2.47;;;;;;;;;;7405064;19;20010;-84
2022/05/02 15:49:43;;;;;;;5.55;2.65;;;;;;;;;;7409981;19;20082;-84
2022/05/02 15:52:20;;;;;;;2.97;2.47;;;;;;;;;;7409716;19;20132;-81
2022/05/02 15:54:48;;;;;;;2.80;2.38;;;;;;;;;;7408561;19;20205;-83
2022/05/02 15:57:17;;;;;;;2.10;1.88;;;;;;;;;;7404927;19;20037;-81
2022/05/02 15:59:44;;;;;;;2.50;2.30;;;;;;;;;;7404561;19;20073;-83
2022/05/02 16:02:10;;;;;;;2.58;2.38;;;;;;;;;;7407280;19;20068;-82
2022/05/02 16:04:38;;;;;;;4.85;2.22;;;;;;;;;;7394755;19;20006;-82
2022/05/02 16:12:48;;;;;;;3.35;2.70;;;;;;;;;;7401472;19;20042;-82
2022/05/02 16:15:14;;;;;;;3.90;2.75;;;;;;;;;;7400565;19;20019;-82
2022/05/02 16:17:55;;;;;;;2.92;2.50;;;;;;;;;;7400635;19;20017;-81
2022/05/02 16:20:23;;;;;;;2.17;1.98;;;;;;;;;;7401457;19;19999;-82
2022/05/02 16:22:50;;;;;;;3.33;2.20;;;;;;;;;;7397029;19;20007;-83
2022/05/02 16:25:27;;;;;;;3.25;2.47;;;;;;;;;;7397519;19;20490;-81
2022/05/02 16:27:52;;;;;;;5.57;2.33;;;;;;;;;;7390260;19;20470;-81
2022/05/02 16:30:18;;;;;;;2.58;2.35;;;;;;;;;;7395783;19;20006;-81
2022/05/02 16:32:46;;;;;;;4.00;2.45;;;;;;;;;;7396066;19;20026;-81
2022/05/02 16:35:20;;;;;;;3.30;2.00;;;;;;;;;;7396889;19;20041;-81
2022/05/02 16:37:47;;;;;;;2.20;2.00;;;;;;;;;;7400762;19;20033;-81
2022/05/02 16:40:16;;;;;;;7.40;2.60;;;;;;;;;;7404361;19;20014;-82
2022/05/02 16:42:43;;;;;;;3.55;2.08;;;;;;;;;;7401948;19;20002;-82
2022/05/02 16:45:13;;;;;;;2.08;1.88;;;;;;;;;;7403931;19;20014;-83
2022/05/02 16:47:42;;;;;;;2.97;2.20;;;;;;;;;;7400227;19;19995;-81
2022/05/02 16:50:10;;;;;;;3.85;2.40;;;;;;;;;;7401200;19;20012;-82
2022/05/02 16:52:38;;;;;;;9.13;2.22;;;;;;;;;;7404461;19;20058;-82
2022/05/02 16:55:05;;;;;;;2.78;2.20;;;;;;;;;;7408532;19;20019;-82
2022/05/02 16:57:35;;;;;;;4.55;3.20;;;;;;;;;;7405830;19;20007;-82
2022/05/02 17:00:04;;;;;;;3.55;2.38;;;;;;;;;;7405647;19;20440;-81
2022/05/02 17:02:30;;;;;;;2.67;2.05;;;;;;;;;;7399377;19;20854;-81
2022/05/02 17:05:09;;;;;;;;;;;;;;;;;;;;;
2022/05/02 17:07:41;;;;;;;2.45;2.03;;;;;;;;;;7402767;19;20020;-81
2022/05/02 17:10:07;;;;;;;4.15;2.35;;;;;;;;;;7404744;19;20039;-81
2022/05/02 17:12:33;;;;;;;5.15;2.30;;;;;;;;;;7404462;19;20015;-81
2022/05/02 17:14:59;;;;;;;2.90;2.20;;;;;;;;;;7396711;19;20010;-81
2022/05/02 17:17:29;;;;;;;3.05;2.42;;;;;;;;;;7397333;19;20029;-81
2022/05/02 17:19:56;;;;;;;3.25;2.35;;;;;;;;;;7393704;19;20364;-80
2022/05/02 17:22:26;;;;;;;4.03;2.28;;;;;;;;;;7394823;19;20059;-80
2022/05/02 17:24:58;;;;;;;5.10;2.00;;;;;;;;;;7391444;19;20014;-79
2022/05/02 17:27:28;;;;;;;4.32;2.10;;;;;;;;;;7392042;19;20604;-79
2022/05/02 17:29:55;;;;;;;3.13;2.20;;;;;;;;;;7387605;19;20074;-80
2022/05/02 17:32:22;;;;;;;2.33;1.98;;;;;;;;;;7392125;19;20011;-80
2022/05/02 17:34:52;;;;;;;4.63;2.30;;;;;;;;;;7392801;19;20007;-80
2022/05/02 17:37:20;;;;;;;1.88;1.77;;;;;;;;;;7390725;19;20341;-80
2022/05/02 17:40:17;;;;;;;3.13;2.10;;;;;;;;;;7389670;19;20014;-80
2022/05/02 17:42:37;;;;;;;3.78;2.38;;;;;;;;;;7393526;19;20014;-80
2022/05/02 17:45:03;;;;;;;2.40;2.20;;;;;;;;;;7390685;19;20010;-79
2022/05/02 17:47:30;;;;;;;4.43;2.83;;;;;;;;;;7392842;19;20006;-80
2022/05/02 17:49:56;;;;;;;3.90;2.55;;;;;;;;;;7392629;19;20003;-81
2022/05/02 17:52:26;;;;;;;5.53;3.00;;;;;;;;;;7390017;19;20085;-80
2022/05/02 17:54:53;;;;;;;5.63;3.60;;;;;;;;;;7387733;19;20002;-80